sensor_id;sensor_type;location;lat;lon;timestamp;pressure;altitude;pressure_sealevel;temperature;humidity
33189;BME280;52601;53.070;10.600;2023-01-28T00:01:13;102579.72;;;2.35;93.72
33189;BME280;52601;53.070;10.600;2023-01-28T00:03:59;102578.81;;;2.32;94.51
33189;BME280;52601;53.070;10.600;2023-01-28T00:06:44;102576.22;;;2.32;94.53
33189;BME280;52601;53.070;10.600;2023-01-28T00:09:29;102578.72;;;2.24;89.44
33189;BME280;52601;53.070;10.600;2023-01-28T00:12:15;102575.13;;;2.16;89.14
33189;BME280;52601;53.070;10.600;2023-01-28T00:15:00;102585.38;;;2.12;91.83
33189;BME280;52601;53.070;10.600;2023-01-28T00:17:46;102578.53;;;2.15;92.21
33189;BME280;52601;53.070;10.600;2023-01-28T00:20:31;102568.00;;;2.03;94.00
33189;BME280;52601;53.070;10.600;2023-01-28T00:23:16;102572.56;;;2.18;96.10
33189;BME280;52601;53.070;10.600;2023-01-28T00:26:05;102575.28;;;2.27;91.68
33189;BME280;52601;53.070;10.600;2023-01-28T00:28:51;102564.88;;;2.24;90.02
33189;BME280;52601;53.070;10.600;2023-01-28T00:31:37;102567.47;;;2.24;90.71
33189;BME280;52601;53.070;10.600;2023-01-28T00:34:22;102560.53;;;2.23;91.53
33189;BME280;52601;53.070;10.600;2023-01-28T00:37:08;102567.38;;;2.18;89.06
33189;BME280;52601;53.070;10.600;2023-01-28T00:39:53;102563.97;;;2.20;87.80
33189;BME280;52601;53.070;10.600;2023-01-28T00:42:39;102558.06;;;2.29;88.49
33189;BME280;52601;53.070;10.600;2023-01-28T00:45:24;102569.28;;;2.29;88.13
33189;BME280;52601;53.070;10.600;2023-01-28T00:48:10;102561.53;;;2.31;88.07
33189;BME280;52601;53.070;10.600;2023-01-28T00:50:55;102559.81;;;2.31;85.81
33189;BME280;52601;53.070;10.600;2023-01-28T00:53:41;102557.34;;;2.39;83.75
33189;BME280;52601;53.070;10.600;2023-01-28T00:56:27;102560.81;;;2.41;84.47
33189;BME280;52601;53.070;10.600;2023-01-28T00:59:12;102563.28;;;2.32;86.84
33189;BME280;52601;53.070;10.600;2023-01-28T01:01:58;102558.91;;;2.28;86.92
33189;BME280;52601;53.070;10.600;2023-01-28T01:04:57;102577.13;;;2.34;88.50
33189;BME280;52601;53.070;10.600;2023-01-28T01:07:42;102578.91;;;2.38;87.61
33189;BME280;52601;53.070;10.600;2023-01-28T01:10:28;102582.97;;;2.22;89.61
33189;BME280;52601;53.070;10.600;2023-01-28T01:13:13;102578.50;;;2.12;91.90
33189;BME280;52601;53.070;10.600;2023-01-28T01:16:09;102589.88;;;2.23;91.62
33189;BME280;52601;53.070;10.600;2023-01-28T01:18:55;102580.22;;;2.12;88.04
33189;BME280;52601;53.070;10.600;2023-01-28T01:21:41;102583.81;;;2.20;90.25
33189;BME280;52601;53.070;10.600;2023-01-28T01:24:26;102582.97;;;2.22;89.02
33189;BME280;52601;53.070;10.600;2023-01-28T01:27:14;102591.69;;;2.29;86.37
33189;BME280;52601;53.070;10.600;2023-01-28T01:29:59;102589.91;;;2.25;86.67
33189;BME280;52601;53.070;10.600;2023-01-28T01:32:44;102583.19;;;2.34;88.26
33189;BME280;52601;53.070;10.600;2023-01-28T01:35:30;102587.47;;;2.34;88.59
33189;BME280;52601;53.070;10.600;2023-01-28T01:38:15;102571.84;;;2.28;89.33
33189;BME280;52601;53.070;10.600;2023-01-28T01:41:03;102577.81;;;2.24;89.44
33189;BME280;52601;53.070;10.600;2023-01-28T01:43:58;102582.22;;;2.28;88.30
33189;BME280;52601;53.070;10.600;2023-01-28T01:46:47;102574.56;;;2.37;85.59
33189;BME280;52601;53.070;10.600;2023-01-28T01:49:34;102565.97;;;2.36;84.64
33189;BME280;52601;53.070;10.600;2023-01-28T01:52:23;102572.56;;;2.19;89.73
33189;BME280;52601;53.070;10.600;2023-01-28T01:55:16;102570.88;;;2.20;91.91
33189;BME280;52601;53.070;10.600;2023-01-28T01:58:07;102568.19;;;2.15;92.01
33189;BME280;52601;53.070;10.600;2023-01-28T02:00:54;102564.56;;;2.04;92.58
33189;BME280;52601;53.070;10.600;2023-01-28T02:03:54;102570.72;;;2.11;92.67
33189;BME280;52601;53.070;10.600;2023-01-28T02:06:41;102580.94;;;2.03;92.62
33189;BME280;52601;53.070;10.600;2023-01-28T02:09:30;102569.63;;;1.97;93.72
33189;BME280;52601;53.070;10.600;2023-01-28T02:12:25;102568.06;;;2.06;92.00
33189;BME280;52601;53.070;10.600;2023-01-28T02:15:19;102573.16;;;2.02;91.34
33189;BME280;52601;53.070;10.600;2023-01-28T02:18:05;102569.75;;;2.06;91.05
33189;BME280;52601;53.070;10.600;2023-01-28T02:27:28;102581.00;;;2.08;91.99
33189;BME280;52601;53.070;10.600;2023-01-28T02:30:20;102571.66;;;2.16;92.04
33189;BME280;52601;53.070;10.600;2023-01-28T02:33:28;102578.50;;;2.11;92.66
33189;BME280;52601;53.070;10.600;2023-01-28T02:36:23;102582.59;;;2.00;94.47
33189;BME280;52601;53.070;10.600;2023-01-28T02:39:15;102567.88;;;1.97;93.68
33189;BME280;52601;53.070;10.600;2023-01-28T02:42:09;102574.50;;;1.80;92.95
33189;BME280;52601;53.070;10.600;2023-01-28T02:44:57;102578.19;;;1.93;93.91
33189;BME280;52601;53.070;10.600;2023-01-28T02:47:43;102583.50;;;2.02;96.02
33189;BME280;52601;53.070;10.600;2023-01-28T02:51:14;102563.41;;;1.87;95.09
33189;BME280;52601;53.070;10.600;2023-01-28T02:54:11;102568.00;;;2.03;95.37
33189;BME280;52601;53.070;10.600;2023-01-28T02:57:28;102574.81;;;1.97;94.38
33189;BME280;52601;53.070;10.600;2023-01-28T03:00:26;102569.53;;;1.91;94.82
33189;BME280;52601;53.070;10.600;2023-01-28T03:03:32;102575.41;;;1.84;94.58
33189;BME280;52601;53.070;10.600;2023-01-28T03:06:21;102562.69;;;1.96;94.79
33189;BME280;52601;53.070;10.600;2023-01-28T03:09:10;102566.19;;;1.99;92.00
33189;BME280;52601;53.070;10.600;2023-01-28T03:12:10;102551.22;;;1.80;93.02
33189;BME280;52601;53.070;10.600;2023-01-28T03:15:21;102560.69;;;1.78;95.10
33189;BME280;52601;53.070;10.600;2023-01-28T03:18:28;102561.56;;;1.79;96.95
33189;BME280;52601;53.070;10.600;2023-01-28T03:21:37;102554.13;;;1.97;92.99
33189;BME280;52601;53.070;10.600;2023-01-28T03:24:47;102555.75;;;1.93;92.05
33189;BME280;52601;53.070;10.600;2023-01-28T03:27:56;102560.13;;;1.97;94.42
33189;BME280;52601;53.070;10.600;2023-01-28T03:31:13;102556.25;;;1.71;96.42
33189;BME280;52601;53.070;10.600;2023-01-28T03:34:20;102557.00;;;1.65;98.24
33189;BME280;52601;53.070;10.600;2023-01-28T03:37:24;102558.78;;;1.69;95.74
33189;BME280;52601;53.070;10.600;2023-01-28T03:40:12;102563.03;;;1.66;94.61
33189;BME280;52601;53.070;10.600;2023-01-28T03:42:58;102559.41;;;1.55;95.07
33189;BME280;52601;53.070;10.600;2023-01-28T03:45:45;102560.59;;;1.73;93.30
33189;BME280;52601;53.070;10.600;2023-01-28T03:48:31;102558.22;;;1.86;91.98
33189;BME280;52601;53.070;10.600;2023-01-28T03:51:17;102553.94;;;1.88;93.18
33189;BME280;52601;53.070;10.600;2023-01-28T03:54:02;102561.25;;;1.62;94.57
33189;BME280;52601;53.070;10.600;2023-01-28T03:56:48;102573.44;;;1.69;94.74
33189;BME280;52601;53.070;10.600;2023-01-28T03:59:33;102576.00;;;1.67;92.07
33189;BME280;52601;53.070;10.600;2023-01-28T04:02:20;102568.13;;;1.61;89.57
33189;BME280;52601;53.070;10.600;2023-01-28T04:05:07;102559.63;;;1.67;89.76
33189;BME280;52601;53.070;10.600;2023-01-28T04:07:57;102560.53;;;1.70;90.83
33189;BME280;52601;53.070;10.600;2023-01-28T04:10:42;102569.00;;;1.63;92.14
33189;BME280;52601;53.070;10.600;2023-01-28T04:13:28;102570.00;;;1.70;89.94
33189;BME280;52601;53.070;10.600;2023-01-28T04:16:15;102576.31;;;1.86;87.27
33189;BME280;52601;53.070;10.600;2023-01-28T04:19:01;102568.56;;;1.86;85.92
33189;BME280;52601;53.070;10.600;2023-01-28T04:21:48;102577.41;;;1.98;87.27
33189;BME280;52601;53.070;10.600;2023-01-28T04:24:33;102571.00;;;1.77;88.79
33189;BME280;52601;53.070;10.600;2023-01-28T04:27:19;102568.28;;;1.69;88.11
33189;BME280;52601;53.070;10.600;2023-01-28T04:30:05;102569.75;;;1.56;88.98
33189;BME280;52601;53.070;10.600;2023-01-28T04:32:50;102594.69;;;1.53;88.94
33189;BME280;52601;53.070;10.600;2023-01-28T04:35:36;102586.25;;;1.63;89.75
33189;BME280;52601;53.070;10.600;2023-01-28T04:38:22;102581.88;;;1.59;90.49
33189;BME280;52601;53.070;10.600;2023-01-28T04:41:07;102589.69;;;1.62;90.51
33189;BME280;52601;53.070;10.600;2023-01-28T04:43:52;102570.56;;;1.54;88.78
33189;BME280;52601;53.070;10.600;2023-01-28T04:46:38;102581.91;;;1.60;89.29
33189;BME280;52601;53.070;10.600;2023-01-28T04:49:24;102579.25;;;1.57;93.03
33189;BME280;52601;53.070;10.600;2023-01-28T04:52:09;102571.34;;;1.50;92.50
33189;BME280;52601;53.070;10.600;2023-01-28T04:54:55;102573.03;;;1.48;90.69
33189;BME280;52601;53.070;10.600;2023-01-28T04:57:40;102577.44;;;1.53;87.96
33189;BME280;52601;53.070;10.600;2023-01-28T05:00:26;102572.56;;;1.67;89.18
33189;BME280;52601;53.070;10.600;2023-01-28T05:03:11;102577.50;;;1.55;90.08
33189;BME280;52601;53.070;10.600;2023-01-28T05:05:57;102576.38;;;1.42;91.13
33189;BME280;52601;53.070;10.600;2023-01-28T05:08:42;102567.63;;;1.34;92.02
33189;BME280;52601;53.070;10.600;2023-01-28T05:11:28;102562.50;;;1.37;90.36
33189;BME280;52601;53.070;10.600;2023-01-28T05:14:13;102560.91;;;1.44;88.03
33189;BME280;52601;53.070;10.600;2023-01-28T05:16:59;102568.63;;;1.42;89.02
33189;BME280;52601;53.070;10.600;2023-01-28T05:19:45;102565.06;;;1.37;92.11
33189;BME280;52601;53.070;10.600;2023-01-28T05:22:31;102567.78;;;1.43;91.53
33189;BME280;52601;53.070;10.600;2023-01-28T05:25:16;102574.69;;;1.44;93.08
33189;BME280;52601;53.070;10.600;2023-01-28T05:28:01;102567.50;;;1.28;93.63
33189;BME280;52601;53.070;10.600;2023-01-28T05:30:47;102564.47;;;1.50;91.57
33189;BME280;52601;53.070;10.600;2023-01-28T05:33:33;102556.50;;;1.38;89.02
33189;BME280;52601;53.070;10.600;2023-01-28T05:36:18;102559.75;;;1.28;90.52
33189;BME280;52601;53.070;10.600;2023-01-28T05:39:04;102563.34;;;1.36;88.53
33189;BME280;52601;53.070;10.600;2023-01-28T05:41:50;102558.22;;;1.39;87.87
33189;BME280;52601;53.070;10.600;2023-01-28T05:44:35;102560.03;;;1.43;87.88
33189;BME280;52601;53.070;10.600;2023-01-28T05:47:22;102556.06;;;1.62;88.56
33189;BME280;52601;53.070;10.600;2023-01-28T05:50:08;102566.94;;;1.44;88.17
33189;BME280;52601;53.070;10.600;2023-01-28T05:52:54;102566.19;;;1.50;87.95
33189;BME280;52601;53.070;10.600;2023-01-28T05:55:39;102576.38;;;1.41;87.10
33189;BME280;52601;53.070;10.600;2023-01-28T05:58:25;102586.84;;;1.48;89.37
33189;BME280;52601;53.070;10.600;2023-01-28T06:01:14;102588.44;;;1.43;92.37
33189;BME280;52601;53.070;10.600;2023-01-28T06:04:00;102574.50;;;1.34;95.08
33189;BME280;52601;53.070;10.600;2023-01-28T06:06:45;102583.13;;;1.34;94.20
33189;BME280;52601;53.070;10.600;2023-01-28T06:09:31;102565.19;;;1.43;94.32
33189;BME280;52601;53.070;10.600;2023-01-28T06:12:17;102571.09;;;1.36;92.23
33189;BME280;52601;53.070;10.600;2023-01-28T06:15:02;102566.81;;;1.37;90.30
33189;BME280;52601;53.070;10.600;2023-01-28T06:17:48;102565.34;;;1.51;88.27
33189;BME280;52601;53.070;10.600;2023-01-28T06:20:34;102576.41;;;1.44;89.28
33189;BME280;52601;53.070;10.600;2023-01-28T06:23:19;102568.91;;;1.57;87.91
33189;BME280;52601;53.070;10.600;2023-01-28T06:26:05;102559.13;;;1.41;87.10
33189;BME280;52601;53.070;10.600;2023-01-28T06:28:50;102563.47;;;1.42;88.10
33189;BME280;52601;53.070;10.600;2023-01-28T06:31:36;102562.53;;;1.39;90.91
33189;BME280;52601;53.070;10.600;2023-01-28T06:34:21;102563.97;;;1.23;92.08
33189;BME280;52601;53.070;10.600;2023-01-28T06:37:07;102568.50;;;1.36;93.18
33189;BME280;52601;53.070;10.600;2023-01-28T06:39:53;102565.16;;;1.40;91.05
33189;BME280;52601;53.070;10.600;2023-01-28T06:42:38;102575.28;;;1.31;90.87
33189;BME280;52601;53.070;10.600;2023-01-28T06:45:24;102562.22;;;1.24;92.56
33189;BME280;52601;53.070;10.600;2023-01-28T06:48:10;102569.13;;;1.23;91.71
33189;BME280;52601;53.070;10.600;2023-01-28T06:50:56;102568.81;;;1.08;91.75
33189;BME280;52601;53.070;10.600;2023-01-28T06:53:41;102568.09;;;1.15;86.53
33189;BME280;52601;53.070;10.600;2023-01-28T06:56:30;102553.53;;;1.19;86.36
33189;BME280;52601;53.070;10.600;2023-01-28T06:59:15;102556.75;;;1.07;90.98
33189;BME280;52601;53.070;10.600;2023-01-28T07:02:01;102557.69;;;1.12;91.12
33189;BME280;52601;53.070;10.600;2023-01-28T07:04:46;102567.91;;;1.06;91.39
33189;BME280;52601;53.070;10.600;2023-01-28T07:07:32;102575.84;;;1.15;92.68
33189;BME280;52601;53.070;10.600;2023-01-28T07:10:18;102569.31;;;0.92;91.70
33189;BME280;52601;53.070;10.600;2023-01-28T07:13:03;102576.13;;;0.87;93.40
33189;BME280;52601;53.070;10.600;2023-01-28T07:15:48;102576.13;;;0.87;94.41
33189;BME280;52601;53.070;10.600;2023-01-28T07:18:35;102580.41;;;0.86;92.16
33189;BME280;52601;53.070;10.600;2023-01-28T07:21:20;102591.91;;;1.01;90.29
33189;BME280;52601;53.070;10.600;2023-01-28T07:24:06;102588.50;;;1.03;88.11
33189;BME280;52601;53.070;10.600;2023-01-28T07:26:52;102587.63;;;1.03;92.52
33189;BME280;52601;53.070;10.600;2023-01-28T07:29:37;102602.22;;;1.01;95.32
33189;BME280;52601;53.070;10.600;2023-01-28T07:32:23;102604.94;;;1.07;94.87
33189;BME280;52601;53.070;10.600;2023-01-28T07:35:11;102607.75;;;1.17;95.82
33189;BME280;52601;53.070;10.600;2023-01-28T07:37:58;102602.88;;;1.32;95.24
33189;BME280;52601;53.070;10.600;2023-01-28T07:40:45;102605.19;;;1.19;95.08
33189;BME280;52601;53.070;10.600;2023-01-28T07:43:30;102596.53;;;1.15;95.02
33189;BME280;52601;53.070;10.600;2023-01-28T07:46:16;102603.00;;;1.38;92.90
33189;BME280;52601;53.070;10.600;2023-01-28T07:49:02;102596.78;;;1.29;91.90
33189;BME280;52601;53.070;10.600;2023-01-28T07:51:47;102602.09;;;1.36;93.77
33189;BME280;52601;53.070;10.600;2023-01-28T07:54:35;102604.97;;;1.51;90.88
33189;BME280;52601;53.070;10.600;2023-01-28T07:57:20;102618.91;;;1.59;89.42
33189;BME280;52601;53.070;10.600;2023-01-28T08:00:09;102614.97;;;1.78;87.04
33189;BME280;52601;53.070;10.600;2023-01-28T08:02:56;102609.13;;;1.90;86.59
33189;BME280;52601;53.070;10.600;2023-01-28T08:05:46;102608.47;;;2.00;85.51
33189;BME280;52601;53.070;10.600;2023-01-28T08:08:32;102614.94;;;2.24;86.49
33189;BME280;52601;53.070;10.600;2023-01-28T08:11:18;102617.06;;;2.51;86.11
33189;BME280;52601;53.070;10.600;2023-01-28T08:14:03;102611.97;;;2.54;85.56
33189;BME280;52601;53.070;10.600;2023-01-28T08:16:49;102628.31;;;2.51;84.11
33189;BME280;52601;53.070;10.600;2023-01-28T08:19:34;102624.13;;;2.59;85.41
33189;BME280;52601;53.070;10.600;2023-01-28T08:22:24;102632.25;;;2.84;86.67
33189;BME280;52601;53.070;10.600;2023-01-28T08:25:09;102630.25;;;2.66;84.03
33189;BME280;52601;53.070;10.600;2023-01-28T08:27:55;102650.91;;;2.61;83.95
33189;BME280;52601;53.070;10.600;2023-01-28T08:30:40;102650.63;;;2.45;81.42
33189;BME280;52601;53.070;10.600;2023-01-28T08:33:26;102649.06;;;2.54;81.41
33189;BME280;52601;53.070;10.600;2023-01-28T08:36:12;102656.59;;;2.41;80.96
33189;BME280;52601;53.070;10.600;2023-01-28T08:38:58;102658.38;;;2.45;81.80
33189;BME280;52601;53.070;10.600;2023-01-28T08:41:43;102671.09;;;2.30;84.27
33189;BME280;52601;53.070;10.600;2023-01-28T08:44:29;102680.44;;;2.23;84.35
33189;BME280;52601;53.070;10.600;2023-01-28T08:47:14;102671.28;;;2.40;84.00
33189;BME280;52601;53.070;10.600;2023-01-28T08:50:00;102676.50;;;2.43;82.87
33189;BME280;52601;53.070;10.600;2023-01-28T08:52:46;102674.50;;;2.29;81.35
33189;BME280;52601;53.070;10.600;2023-01-28T08:55:35;102669.97;;;2.16;85.18
33189;BME280;52601;53.070;10.600;2023-01-28T08:58:21;102670.78;;;2.15;85.36
33189;BME280;52601;53.070;10.600;2023-01-28T09:01:06;102674.34;;;2.20;85.11
33189;BME280;52601;53.070;10.600;2023-01-28T09:03:52;102680.97;;;2.04;84.57
33189;BME280;52601;53.070;10.600;2023-01-28T09:06:38;102688.66;;;2.01;84.17
33189;BME280;52601;53.070;10.600;2023-01-28T09:09:23;102683.22;;;1.88;84.03
33189;BME280;52601;53.070;10.600;2023-01-28T09:12:09;102695.50;;;1.98;85.16
33189;BME280;52601;53.070;10.600;2023-01-28T09:14:55;102690.84;;;1.80;84.87
33189;BME280;52601;53.070;10.600;2023-01-28T09:17:40;102693.56;;;1.86;83.53
33189;BME280;52601;53.070;10.600;2023-01-28T09:20:26;102704.66;;;1.81;82.37
33189;BME280;52601;53.070;10.600;2023-01-28T09:23:12;102710.75;;;1.84;82.64
33189;BME280;52601;53.070;10.600;2023-01-28T09:26:01;102709.97;;;1.88;82.99
33189;BME280;52601;53.070;10.600;2023-01-28T09:28:47;102703.25;;;1.96;80.12
33189;BME280;52601;53.070;10.600;2023-01-28T09:31:33;102685.59;;;1.77;80.03
33189;BME280;52601;53.070;10.600;2023-01-28T09:34:18;102686.41;;;2.19;80.05
33189;BME280;52601;53.070;10.600;2023-01-28T09:37:03;102696.97;;;2.31;77.84
33189;BME280;52601;53.070;10.600;2023-01-28T09:39:49;102692.53;;;2.74;79.51
33189;BME280;52601;53.070;10.600;2023-01-28T09:42:48;102696.31;;;2.95;78.14
33189;BME280;52601;53.070;10.600;2023-01-28T09:45:43;102695.81;;;2.63;78.81
33189;BME280;52601;53.070;10.600;2023-01-28T09:48:34;102700.56;;;2.90;78.45
33189;BME280;52601;53.070;10.600;2023-01-28T09:51:33;102702.69;;;3.18;73.81
33189;BME280;52601;53.070;10.600;2023-01-28T09:54:32;102692.56;;;3.35;72.25
33189;BME280;52601;53.070;10.600;2023-01-28T09:57:25;102709.56;;;3.16;73.27
33189;BME280;52601;53.070;10.600;2023-01-28T10:00:13;102726.50;;;2.93;76.46
33189;BME280;52601;53.070;10.600;2023-01-28T10:03:26;102722.31;;;3.01;76.59
33189;BME280;52601;53.070;10.600;2023-01-28T10:06:33;102720.97;;;3.29;74.71
33189;BME280;52601;53.070;10.600;2023-01-28T10:09:47;102726.84;;;3.16;75.05
33189;BME280;52601;53.070;10.600;2023-01-28T10:12:54;102734.75;;;3.23;75.57
33189;BME280;52601;53.070;10.600;2023-01-28T10:18:36;102724.72;;;3.50;74.21
33189;BME280;52601;53.070;10.600;2023-01-28T10:21:42;102730.72;;;3.45;76.55
33189;BME280;52601;53.070;10.600;2023-01-28T10:24:33;102728.56;;;3.15;75.34
33189;BME280;52601;53.070;10.600;2023-01-28T10:27:22;102726.13;;;3.26;77.70
33189;BME280;52601;53.070;10.600;2023-01-28T10:33:12;102732.84;;;3.12;75.13
33189;BME280;52601;53.070;10.600;2023-01-28T10:36:00;102723.09;;;2.97;76.15
33189;BME280;52601;53.070;10.600;2023-01-28T10:38:47;102720.69;;;3.09;76.20
33189;BME280;52601;53.070;10.600;2023-01-28T10:41:32;102708.44;;;2.98;77.68
33189;BME280;52601;53.070;10.600;2023-01-28T10:44:36;102711.34;;;3.20;78.45
33189;BME280;52601;53.070;10.600;2023-01-28T10:47:39;102709.78;;;3.31;75.36
33189;BME280;52601;53.070;10.600;2023-01-28T10:50:28;102704.94;;;3.56;76.21
33189;BME280;52601;53.070;10.600;2023-01-28T10:53:14;102695.38;;;3.53;73.94
33189;BME280;52601;53.070;10.600;2023-01-28T10:55:59;102698.03;;;3.58;73.90
33189;BME280;52601;53.070;10.600;2023-01-28T11:04:35;102669.22;;;4.10;70.98
33189;BME280;52601;53.070;10.600;2023-01-28T11:07:20;102671.31;;;4.49;69.07
33189;BME280;52601;53.070;10.600;2023-01-28T11:10:26;102668.28;;;5.07;67.12
33189;BME280;52601;53.070;10.600;2023-01-28T11:13:22;102664.94;;;5.34;64.61
33189;BME280;52601;53.070;10.600;2023-01-28T11:16:16;102655.72;;;6.47;61.76
33189;BME280;52601;53.070;10.600;2023-01-28T11:19:05;102646.09;;;5.92;62.26
33189;BME280;52601;53.070;10.600;2023-01-28T11:21:53;102653.91;;;5.99;62.90
33189;BME280;52601;53.070;10.600;2023-01-28T11:24:41;102657.22;;;5.49;63.46
33189;BME280;52601;53.070;10.600;2023-01-28T11:27:29;102659.03;;;5.72;64.29
33189;BME280;52601;53.070;10.600;2023-01-28T11:30:28;102641.81;;;6.50;62.22
33189;BME280;52601;53.070;10.600;2023-01-28T11:33:30;102642.56;;;7.11;62.53
33189;BME280;52601;53.070;10.600;2023-01-28T11:36:25;102639.88;;;10.12;57.68
33189;BME280;52601;53.070;10.600;2023-01-28T11:39:29;102623.81;;;11.28;48.51
33189;BME280;52601;53.070;10.600;2023-01-28T11:42:19;102619.94;;;9.37;51.01
33189;BME280;52601;53.070;10.600;2023-01-28T11:45:14;102608.97;;;8.12;53.78
33189;BME280;52601;53.070;10.600;2023-01-28T11:54:29;102549.34;;;11.70;47.52
33189;BME280;52601;53.070;10.600;2023-01-28T11:57:41;102539.72;;;11.71;46.98
33189;BME280;52601;53.070;10.600;2023-01-28T12:00:41;102525.00;;;12.65;45.43
33189;BME280;52601;53.070;10.600;2023-01-28T12:04:01;102518.84;;;12.66;45.34
33189;BME280;52601;53.070;10.600;2023-01-28T12:07:22;102529.66;;;12.55;45.10
33189;BME280;52601;53.070;10.600;2023-01-28T12:13:17;102527.84;;;11.13;46.99
33189;BME280;52601;53.070;10.600;2023-01-28T12:19:17;102510.06;;;10.85;48.50
33189;BME280;52601;53.070;10.600;2023-01-28T12:22:32;102494.91;;;10.99;47.53
33189;BME280;52601;53.070;10.600;2023-01-28T12:25:37;102492.75;;;12.87;45.27
33189;BME280;52601;53.070;10.600;2023-01-28T12:28:37;102501.31;;;13.25;43.78
33189;BME280;52601;53.070;10.600;2023-01-28T12:31:40;102513.97;;;11.47;46.20
33189;BME280;52601;53.070;10.600;2023-01-28T12:34:41;102536.28;;;9.29;50.49
33189;BME280;52601;53.070;10.600;2023-01-28T12:37:44;102523.78;;;10.99;50.98
33189;BME280;52601;53.070;10.600;2023-01-28T12:40:53;102516.44;;;13.47;43.90
33189;BME280;52601;53.070;10.600;2023-01-28T12:43:59;102529.31;;;13.29;43.98
33189;BME280;52601;53.070;10.600;2023-01-28T12:46:52;102520.03;;;16.50;40.13
33189;BME280;52601;53.070;10.600;2023-01-28T12:49:42;102522.31;;;16.96;38.89
33189;BME280;52601;53.070;10.600;2023-01-28T12:52:37;102527.72;;;18.05;38.70
33189;BME280;52601;53.070;10.600;2023-01-28T12:55:47;102529.31;;;17.55;38.62
33189;BME280;52601;53.070;10.600;2023-01-28T13:01:48;102533.22;;;17.83;37.38
33189;BME280;52601;53.070;10.600;2023-01-28T13:04:41;102532.50;;;16.26;38.83
33189;BME280;52601;53.070;10.600;2023-01-28T13:10:43;102526.84;;;17.87;38.76
33189;BME280;52601;53.070;10.600;2023-01-28T13:13:35;102524.88;;;17.55;36.17
33189;BME280;52601;53.070;10.600;2023-01-28T13:16:22;102535.94;;;17.26;38.74
33189;BME280;52601;53.070;10.600;2023-01-28T13:19:24;102515.25;;;17.88;36.78
33189;BME280;52601;53.070;10.600;2023-01-28T13:22:12;102504.88;;;17.30;38.50
33189;BME280;52601;53.070;10.600;2023-01-28T13:25:22;102506.81;;;16.08;39.72
33189;BME280;52601;53.070;10.600;2023-01-28T13:28:27;102495.50;;;15.83;40.66
33189;BME280;52601;53.070;10.600;2023-01-28T13:31:16;102475.91;;;17.44;37.96
33189;BME280;52601;53.070;10.600;2023-01-28T13:34:03;102478.47;;;18.32;36.22
33189;BME280;52601;53.070;10.600;2023-01-28T13:36:49;102470.06;;;18.41;35.68
33189;BME280;52601;53.070;10.600;2023-01-28T13:39:35;102471.19;;;17.32;36.88
33189;BME280;52601;53.070;10.600;2023-01-28T13:42:26;102458.22;;;17.07;37.63
33189;BME280;52601;53.070;10.600;2023-01-28T13:48:17;102425.16;;;15.58;38.01
33189;BME280;52601;53.070;10.600;2023-01-28T13:51:11;102423.91;;;16.85;37.63
33189;BME280;52601;53.070;10.600;2023-01-28T13:54:11;102408.28;;;16.40;37.84
33189;BME280;52601;53.070;10.600;2023-01-28T14:15:31;102475.91;;;11.99;46.50
33189;BME280;52601;53.070;10.600;2023-01-28T14:18:26;102489.75;;;10.52;48.55
33189;BME280;52601;53.070;10.600;2023-01-28T14:21:16;102482.28;;;9.24;48.79
33189;BME280;52601;53.070;10.600;2023-01-28T14:24:03;102501.59;;;8.42;53.55
33189;BME280;52601;53.070;10.600;2023-01-28T14:27:30;102508.03;;;6.66;58.20
33189;BME280;52601;53.070;10.600;2023-01-28T14:30:27;102528.09;;;6.26;59.97
33189;BME280;52601;53.070;10.600;2023-01-28T14:33:14;102535.91;;;6.26;61.42
33189;BME280;52601;53.070;10.600;2023-01-28T14:35:59;102546.28;;;6.19;61.63
33189;BME280;52601;53.070;10.600;2023-01-28T14:38:45;102528.00;;;5.40;62.54
33189;BME280;52601;53.070;10.600;2023-01-28T14:41:31;102527.84;;;4.95;64.71
33189;BME280;52601;53.070;10.600;2023-01-28T14:44:27;102527.84;;;4.99;66.32
33189;BME280;52601;53.070;10.600;2023-01-28T14:47:41;102506.13;;;4.85;66.42
33189;BME280;52601;53.070;10.600;2023-01-28T14:50:42;102518.88;;;4.37;67.81
33189;BME280;52601;53.070;10.600;2023-01-28T14:53:52;102511.13;;;4.48;68.42
33189;BME280;52601;53.070;10.600;2023-01-28T15:00:15;102488.47;;;4.18;69.98
33189;BME280;52601;53.070;10.600;2023-01-28T15:03:15;102485.88;;;4.18;70.15
33189;BME280;52601;53.070;10.600;2023-01-28T15:06:16;102485.66;;;3.89;69.90
33189;BME280;52601;53.070;10.600;2023-01-28T15:09:10;102491.66;;;3.82;71.09
33189;BME280;52601;53.070;10.600;2023-01-28T15:11:57;102476.03;;;3.73;72.79
33189;BME280;52601;53.070;10.600;2023-01-28T15:14:43;102487.13;;;3.59;71.21
33189;BME280;52601;53.070;10.600;2023-01-28T15:17:31;102493.97;;;3.50;72.79
33189;BME280;52601;53.070;10.600;2023-01-28T15:20:19;102497.25;;;3.30;74.16
33189;BME280;52601;53.070;10.600;2023-01-28T15:23:06;102491.94;;;3.19;76.53
33189;BME280;52601;53.070;10.600;2023-01-28T15:25:52;102505.72;;;3.17;77.41
33189;BME280;52601;53.070;10.600;2023-01-28T15:28:39;102515.72;;;2.85;78.07
33189;BME280;52601;53.070;10.600;2023-01-28T15:31:30;102511.13;;;2.64;78.19
33189;BME280;52601;53.070;10.600;2023-01-28T15:34:18;102535.38;;;2.70;79.25
33189;BME280;52601;53.070;10.600;2023-01-28T15:37:04;102536.25;;;2.70;79.53
33189;BME280;52601;53.070;10.600;2023-01-28T15:40:00;102537.78;;;2.56;81.49
33189;BME280;52601;53.070;10.600;2023-01-28T15:42:47;102562.94;;;2.66;84.11
33189;BME280;52601;53.070;10.600;2023-01-28T15:45:33;102554.41;;;2.73;84.28
33189;BME280;52601;53.070;10.600;2023-01-28T15:48:18;102561.25;;;2.70;82.82
33189;BME280;52601;53.070;10.600;2023-01-28T15:51:14;102573.63;;;2.90;80.93